Time;durP1;ratioP1;P1;durP2;ratioP2;P2;SDS_P1;SDS_P2;PMS_P1;PMS_P2;Temp;Humidity;BMP_temperature;BMP_pressure;BME280_temperature;BME280_humidity;BME280_pressure;Samples;Min_cycle;Max_cycle;Signal;HPM_P1;HPM_P2
2022/11/14 00:02:34;;;;;;;29.73;14.80;;;;;;;6.11;100.00;93063.03;5049949;28;20139;-76
2022/11/14 00:05:18;;;;;;;26.23;12.93;;;;;;;6.11;100.00;93054.47;5036602;28;20052;-76
2022/11/14 00:08:02;;;;;;;30.33;14.57;;;;;;;6.07;100.00;93061.16;5036161;28;20071;-77
2022/11/14 00:10:49;;;;;;;23.85;13.43;;;;;;;6.10;100.00;93063.28;5022780;28;20059;-76
2022/11/14 00:13:34;;;;;;;22.40;12.63;;;;;;;6.10;100.00;93060.66;5051658;28;20072;-77
2022/11/14 00:16:18;;;;;;;23.23;11.38;;;;;;;6.18;100.00;93055.06;5051201;28;20410;-76
2022/11/14 00:19:02;;;;;;;22.75;12.05;;;;;;;6.14;100.00;93051.38;5057861;28;20051;-76
2022/11/14 00:21:46;;;;;;;17.20;9.77;;;;;;;6.11;100.00;93049.25;5070904;28;20073;-76
2022/11/14 00:24:30;;;;;;;16.65;9.75;;;;;;;6.07;100.00;93048.19;5050908;28;20116;-76
2022/11/14 00:27:14;;;;;;;17.42;9.13;;;;;;;5.99;100.00;93045.00;5035968;28;20056;-77
2022/11/14 00:29:58;;;;;;;18.02;9.38;;;;;;;6.05;100.00;93041.38;5069476;28;20406;-76
2022/11/14 00:32:42;;;;;;;25.23;10.23;;;;;;;5.98;100.00;93046.00;5055608;28;20117;-77
2022/11/14 00:35:26;;;;;;;17.95;9.93;;;;;;;5.92;100.00;93038.34;5070792;28;20105;-76
2022/11/14 00:38:10;;;;;;;21.50;10.20;;;;;;;5.91;100.00;93040.19;5069134;28;20094;-76
2022/11/14 00:40:54;;;;;;;30.83;16.02;;;;;;;5.83;100.00;93040.59;5050680;28;20052;-77
2022/11/14 00:43:38;;;;;;;17.58;9.27;;;;;;;5.90;100.00;93036.03;5050036;28;20074;-77
2022/11/14 00:46:22;;;;;;;16.73;9.63;;;;;;;5.89;100.00;93033.66;5055529;28;20131;-76
2022/11/14 00:49:06;;;;;;;19.88;9.57;;;;;;;5.93;100.00;93035.53;5053734;28;20043;-77
2022/11/14 00:51:50;;;;;;;18.48;9.70;;;;;;;5.97;100.00;93031.44;5072411;28;20453;-77
2022/11/14 00:54:33;;;;;;;19.17;9.95;;;;;;;5.99;100.00;93032.00;5076230;28;20483;-77
2022/11/14 00:57:17;;;;;;;16.67;9.32;;;;;;;6.02;100.00;93026.28;5062329;28;20079;-76
2022/11/14 01:00:03;;;;;;;17.88;8.88;;;;;;;6.02;100.00;93021.09;5076720;28;20420;-76
2022/11/14 01:02:47;;;;;;;14.95;8.18;;;;;;;6.07;100.00;93022.97;5062264;28;20056;-76
2022/11/14 01:05:31;;;;;;;13.80;7.57;;;;;;;6.12;100.00;93019.63;5062083;28;20549;-76
2022/11/14 01:08:17;;;;;;;14.02;7.97;;;;;;;6.12;100.00;93023.00;5077365;28;20071;-76
2022/11/14 01:11:11;;;;;;;13.30;7.45;;;;;;;6.10;100.00;93016.50;5062281;28;20051;-76
2022/11/14 01:13:55;;;;;;;13.55;7.47;;;;;;;6.16;100.00;93016.28;5077201;28;20097;-77
2022/11/14 01:16:39;;;;;;;16.52;7.75;;;;;;;6.17;100.00;93027.47;5061725;28;20052;-76
2022/11/14 01:19:23;;;;;;;14.32;7.55;;;;;;;6.17;100.00;93024.88;5076444;28;20513;-76
2022/11/14 01:22:07;;;;;;;13.40;7.55;;;;;;;6.15;100.00;93016.56;5077314;28;20504;-76
2022/11/14 01:24:51;;;;;;;15.38;7.47;;;;;;;6.15;100.00;93017.34;5062091;28;20580;-76
2022/11/14 01:27:35;;;;;;;14.80;7.25;;;;;;;6.15;100.00;93022.53;5076873;28;20047;-76
2022/11/14 01:30:19;;;;;;;14.38;7.20;;;;;;;6.18;100.00;93018.66;5076833;28;20120;-77
2022/11/14 01:33:04;;;;;;;10.30;6.20;;;;;;;6.18;100.00;93018.66;5076157;28;20102;-77
2022/11/14 01:35:48;;;;;;;10.93;6.32;;;;;;;6.14;100.00;93009.78;5061785;28;20464;-76
2022/11/14 01:38:33;;;;;;;14.57;6.38;;;;;;;6.17;100.00;93014.47;5077341;28;20509;-77
2022/11/14 01:41:17;;;;;;;13.60;7.15;;;;;;;6.17;100.00;93011.88;5076187;28;20047;-76
2022/11/14 01:44:01;;;;;;;11.93;6.40;;;;;;;6.10;100.00;93000.88;5081675;28;20269;-76
2022/11/14 01:46:49;;;;;;;13.13;7.20;;;;;;;6.14;100.00;93001.97;5097471;28;20110;-76
2022/11/14 01:49:42;;;;;;;14.30;7.28;;;;;;;6.17;100.00;93004.88;5065769;28;20055;-76
2022/11/14 01:52:35;;;;;;;12.73;6.65;;;;;;;6.20;100.00;92999.19;5062845;28;20158;-76
2022/11/14 01:55:19;;;;;;;13.85;7.75;;;;;;;6.20;100.00;93001.00;5077823;28;20046;-76
2022/11/14 01:58:03;;;;;;;13.73;7.13;;;;;;;6.18;100.00;92995.25;5076522;28;20044;-76
2022/11/14 02:00:47;;;;;;;15.63;7.70;;;;;;;6.18;100.00;92992.66;5061339;28;20098;-77
2022/11/14 02:03:34;;;;;;;18.50;8.23;;;;;;;6.17;100.00;92991.88;5084764;28;20102;-76
2022/11/14 02:06:21;;;;;;;17.52;8.07;;;;;;;6.14;100.00;92991.56;5073428;28;20098;-76
2022/11/14 02:09:06;;;;;;;13.68;7.40;;;;;;;6.15;100.00;92996.53;5073513;28;20039;-76
2022/11/14 02:11:53;;;;;;;16.92;9.05;;;;;;;6.13;100.00;92998.59;5084976;28;20124;-76
2022/11/14 02:14:38;;;;;;;16.38;8.18;;;;;;;6.08;100.00;93002.94;5093591;28;20131;-76
2022/11/14 02:17:23;;;;;;;16.20;8.13;;;;;;;6.04;100.00;92997.47;5086398;28;20035;-76
2022/11/14 02:20:11;;;;;;;13.20;7.85;;;;;;;6.00;100.00;92991.97;5073109;28;20122;-77
2022/11/14 02:22:55;;;;;;;13.38;8.25;;;;;;;6.01;100.00;92998.75;5072396;28;20082;-76
2022/11/14 02:25:39;;;;;;;16.00;8.75;;;;;;;5.99;100.00;92990.41;5057877;28;20183;-76
2022/11/14 02:28:23;;;;;;;13.48;8.32;;;;;;;5.97;100.00;92989.88;5073169;28;20075;-76
2022/11/14 02:31:07;;;;;;;17.20;9.65;;;;;;;5.99;100.00;92994.81;5073370;28;20556;-76
2022/11/14 02:33:51;;;;;;;15.88;9.07;;;;;;;6.02;100.00;92989.13;5057573;28;20079;-76
2022/11/14 02:36:35;;;;;;;14.77;8.75;;;;;;;5.96;100.00;92983.09;5072535;28;20047;-76
2022/11/14 02:39:19;;;;;;;16.63;9.70;;;;;;;5.98;100.00;92982.84;5069730;28;20149;-76
2022/11/14 02:42:03;;;;;;;23.92;12.15;;;;;;;5.99;100.00;92987.81;5056345;28;20048;-77
2022/11/14 02:44:47;;;;;;;20.85;11.07;;;;;;;5.96;100.00;92987.50;5072788;28;20067;-76
2022/11/14 02:47:31;;;;;;;20.98;11.48;;;;;;;6.00;100.00;92981.56;5072836;28;20113;-76
2022/11/14 02:50:16;;;;;;;21.27;12.05;;;;;;;5.99;100.00;92987.81;5072630;28;20129;-76
2022/11/14 02:53:00;;;;;;;18.23;10.65;;;;;;;5.99;100.00;92979.22;5072437;28;20066;-76
2022/11/14 02:55:44;;;;;;;18.98;10.70;;;;;;;6.03;100.00;92973.31;5057154;28;20052;-76
2022/11/14 02:58:28;;;;;;;18.17;10.27;;;;;;;6.05;100.00;92967.84;5042824;28;20465;-76
2022/11/14 03:01:12;;;;;;;21.23;10.48;;;;;;;6.09;100.00;92968.13;5057562;28;20418;-76
2022/11/14 03:03:57;;;;;;;22.88;11.07;;;;;;;6.09;100.00;92978.53;5057050;28;20520;-76
2022/11/14 03:06:41;;;;;;;18.27;10.27;;;;;;;6.09;100.00;92968.91;5072488;28;20055;-76
2022/11/14 03:09:24;;;;;;;18.33;10.68;;;;;;;6.09;100.00;92973.34;5057389;28;20062;-76
2022/11/14 03:12:09;;;;;;;20.50;10.43;;;;;;;5.99;100.00;92977.41;5071842;28;20418;-76
2022/11/14 03:14:53;;;;;;;19.23;11.52;;;;;;;5.98;100.00;92975.84;5071169;28;20485;-76
2022/11/14 03:17:37;;;;;;;17.88;10.48;;;;;;;6.01;100.00;92977.16;5071262;28;20394;-76
2022/11/14 03:20:21;;;;;;;20.40;10.50;;;;;;;5.94;100.00;92979.94;5067156;28;20460;-76
2022/11/14 03:23:05;;;;;;;18.35;10.52;;;;;;;5.95;100.00;92970.34;5052326;28;20052;-76
2022/11/14 03:25:48;;;;;;;18.08;10.75;;;;;;;5.93;100.00;92977.59;5066728;28;20059;-76
2022/11/14 03:28:33;;;;;;;19.10;10.48;;;;;;;5.93;100.00;92980.97;5072211;28;20051;-76
2022/11/14 03:31:17;;;;;;;16.50;9.52;;;;;;;5.99;100.00;92976.59;5071937;28;20048;-76
2022/11/14 03:34:01;;;;;;;15.20;9.60;;;;;;;6.33;100.00;92976.41;5054777;28;20072;-76
2022/11/14 03:36:44;;;;;;;16.80;9.63;;;;;;;6.09;100.00;92973.34;5053367;28;20237;-76
2022/11/14 03:39:28;;;;;;;17.52;9.65;;;;;;;6.00;100.00;92986.00;5070688;28;20060;-76
2022/11/14 03:42:12;;;;;;;17.88;9.27;;;;;;;5.91;100.00;92983.00;5071510;28;20059;-76
2022/11/14 03:44:56;;;;;;;17.35;9.45;;;;;;;5.80;100.00;92976.91;5056592;28;20059;-76
2022/11/14 03:47:40;;;;;;;17.40;9.73;;;;;;;5.71;100.00;92982.81;5052222;28;20529;-77
2022/11/14 03:50:24;;;;;;;16.23;9.18;;;;;;;5.68;100.00;92978.88;5051798;28;20066;-76
2022/11/14 03:53:10;;;;;;;20.42;10.32;;;;;;;5.70;100.00;92982.03;5060362;28;20101;-76
2022/11/14 03:55:54;;;;;;;18.15;10.02;;;;;;;5.67;100.00;92973.91;5071154;28;20056;-76
2022/11/14 03:58:38;;;;;;;20.02;10.40;;;;;;;5.67;100.00;92984.31;5061901;28;20054;-76
2022/11/14 04:01:22;;;;;;;17.23;9.77;;;;;;;5.60;100.00;92980.09;5071352;28;20075;-76
2022/11/14 04:04:06;;;;;;;19.55;10.27;;;;;;;5.55;100.00;92981.84;5071427;28;20067;-76
2022/11/14 04:06:50;;;;;;;18.52;9.88;;;;;;;5.57;100.00;92983.16;5054925;28;20135;-76
2022/11/14 04:09:34;;;;;;;17.40;9.32;;;;;;;5.55;100.00;92982.63;5070951;28;20094;-76
2022/11/14 04:12:18;;;;;;;15.57;9.30;;;;;;;5.58;100.00;92984.75;5069770;28;20089;-77
2022/11/14 04:15:03;;;;;;;14.63;9.07;;;;;;;5.68;100.00;92984.06;5055871;28;20102;-76
2022/11/14 04:17:47;;;;;;;15.07;9.02;;;;;;;5.63;100.00;92981.44;5071096;28;20066;-76
2022/11/14 04:20:31;;;;;;;15.95;9.10;;;;;;;5.59;100.00;92981.13;5072446;28;20116;-76
2022/11/14 04:23:15;;;;;;;13.43;8.25;;;;;;;5.59;100.00;92980.34;5071416;28;20487;-76
2022/11/14 04:25:59;;;;;;;15.55;9.13;;;;;;;5.60;100.00;92982.69;5071118;28;20056;-76
2022/11/14 04:28:44;;;;;;;13.35;8.50;;;;;;;5.61;100.00;92979.06;5055238;28;20098;-76
2022/11/14 04:31:27;;;;;;;13.10;8.10;;;;;;;5.53;100.00;92982.09;5058092;28;20029;-76
2022/11/14 04:34:11;;;;;;;13.20;8.27;;;;;;;5.53;100.00;92982.09;5050809;28;20126;-76
2022/11/14 04:36:55;;;;;;;15.20;8.80;;;;;;;5.54;100.00;92981.06;5050911;28;20051;-76
2022/11/14 04:39:39;;;;;;;13.98;8.90;;;;;;;5.58;100.00;92979.56;5064604;28;20055;-76
2022/11/14 04:42:24;;;;;;;13.63;8.98;;;;;;;5.57;100.00;92974.59;5062747;28;20072;-76
2022/11/14 04:45:09;;;;;;;14.23;8.95;;;;;;;5.59;100.00;92975.94;5049551;28;20138;-76
2022/11/14 04:47:53;;;;;;;13.85;8.88;;;;;;;5.56;100.00;92976.41;5049763;28;20048;-76
2022/11/14 04:50:37;;;;;;;13.90;8.68;;;;;;;5.59;100.00;92973.34;5050593;28;20048;-76
2022/11/14 04:53:21;;;;;;;14.50;9.10;;;;;;;5.59;100.00;92981.13;5056313;28;20051;-76
2022/11/14 04:56:05;;;;;;;14.63;8.95;;;;;;;5.58;100.00;92976.16;5050576;28;20094;-76
2022/11/14 04:58:50;;;;;;;14.35;8.35;;;;;;;5.65;100.00;92979.34;5048559;28;20051;-76
2022/11/14 05:01:34;;;;;;;14.48;8.38;;;;;;;5.63;100.00;92986.63;5049624;28;20410;-76
2022/11/14 05:04:18;;;;;;;12.32;7.53;;;;;;;5.68;100.00;92980.69;5050462;28;20059;-76
2022/11/14 05:07:03;;;;;;;12.43;7.32;;;;;;;5.66;100.00;92980.94;5049615;28;20529;-76
2022/11/14 05:09:47;;;;;;;16.42;8.82;;;;;;;5.66;100.00;92974.97;5050316;28;20052;-76
2022/11/14 05:12:31;;;;;;;15.43;8.82;;;;;;;5.66;100.00;92980.94;5031022;28;20192;-77
2022/11/14 05:15:15;;;;;;;14.35;8.60;;;;;;;5.66;100.00;92975.75;5050402;28;20102;-76
2022/11/14 05:18:00;;;;;;;16.77;8.82;;;;;;;5.64;100.00;92981.16;5049026;28;20140;-76
2022/11/14 05:20:44;;;;;;;13.95;8.48;;;;;;;5.66;100.00;92986.13;5048960;28;20406;-76
2022/11/14 05:23:28;;;;;;;15.00;8.90;;;;;;;5.62;100.00;92980.63;5067149;28;20086;-76
2022/11/14 05:26:15;;;;;;;15.07;8.38;;;;;;;5.67;100.00;92986.91;5039033;28;20124;-76
2022/11/14 05:28:59;;;;;;;11.77;7.57;;;;;;;5.67;100.00;92986.91;5049873;28;20094;-76
2022/11/14 05:31:43;;;;;;;22.58;13.10;;;;;;;5.68;100.00;92989.28;5050089;28;20112;-76
2022/11/14 05:34:27;;;;;;;33.53;18.23;;;;;;;5.68;100.00;92988.50;5047069;28;20067;-76
2022/11/14 05:37:11;;;;;;;66.70;37.40;;;;;;;5.70;100.00;92992.41;5047071;28;20395;-76
2022/11/14 05:39:55;;;;;;;78.53;42.70;;;;;;;5.71;100.00;92990.59;5050846;28;20056;-76
2022/11/14 05:42:39;;;;;;;23.10;14.13;;;;;;;5.70;100.00;92994.22;5053606;28;20470;-76
2022/11/14 05:45:23;;;;;;;27.13;15.77;;;;;;;5.64;100.00;92988.97;5057197;28;20114;-76
2022/11/14 05:48:07;;;;;;;17.70;10.05;;;;;;;5.66;100.00;92996.53;5039441;28;20494;-76
2022/11/14 05:50:58;;;;;;;13.15;8.45;;;;;;;5.67;100.00;92997.31;5066165;28;20052;-76
2022/11/14 05:53:42;;;;;;;17.48;10.73;;;;;;;5.64;100.00;93004.53;5075900;28;20093;-76
2022/11/14 05:56:26;;;;;;;18.13;11.10;;;;;;;5.65;100.00;93007.91;5078553;28;20047;-77
2022/11/14 05:59:10;;;;;;;15.73;9.40;;;;;;;5.70;100.00;93012.41;5095051;28;20105;-78
2022/11/14 06:01:54;;;;;;;17.55;10.38;;;;;;;5.67;100.00;93011.06;5069960;28;20525;-76
2022/11/14 06:04:39;;;;;;;16.70;9.57;;;;;;;5.68;100.00;93011.88;5077541;28;20162;-76
2022/11/14 06:24:44;;;;;;;13.75;9.07;;;;;;;5.73;100.00;93024.91;5166319;27;20123;-79
2022/11/14 06:27:27;;;;;;;12.20;7.70;;;;;;;5.74;100.00;93026.47;5128361;27;20046;-78
2022/11/14 06:30:12;;;;;;;12.93;8.32;;;;;;;5.73;100.00;93027.50;5160820;27;20049;-79
2022/11/14 06:33:00;;;;;;;15.68;9.98;;;;;;;5.74;100.00;93026.47;5136238;27;20095;-79
2022/11/14 06:35:45;;;;;;;16.73;10.90;;;;;;;5.71;100.00;93029.56;5140329;27;20046;-78
2022/11/14 06:38:31;;;;;;;16.77;10.20;;;;;;;5.74;100.00;93029.06;5136804;27;20095;-78
2022/11/14 06:41:20;;;;;;;15.07;9.30;;;;;;;5.73;100.00;93035.31;5167102;27;20507;-78
2022/11/14 06:44:06;;;;;;;19.70;10.00;;;;;;;5.70;100.00;93031.38;5153194;27;20053;-79
2022/11/14 06:46:51;;;;;;;12.57;7.55;;;;;;;5.72;100.00;93041.50;5154453;27;20049;-80
2022/11/14 06:49:34;;;;;;;13.90;7.85;;;;;;;5.73;100.00;93041.28;5134908;27;20463;-79
2022/11/14 06:52:18;;;;;;;10.57;6.57;;;;;;;5.74;100.00;93044.66;5168398;27;20703;-78
2022/11/14 06:55:02;;;;;;;10.48;6.30;;;;;;;5.73;100.00;93045.69;5168869;27;20465;-77
2022/11/14 06:57:53;;;;;;;9.30;5.95;;;;;;;5.74;100.00;93049.84;5148912;27;20060;-78
2022/11/14 07:00:37;;;;;;;10.30;6.38;;;;;;;5.74;100.00;93049.84;5150743;27;20519;-77
2022/11/14 07:03:22;;;;;;;11.25;7.05;;;;;;;5.73;100.00;93058.69;5154066;27;20531;-77
2022/11/14 07:06:07;;;;;;;10.70;6.85;;;;;;;5.74;100.00;93060.25;5164577;27;20109;-78
2022/11/14 07:08:53;;;;;;;11.65;7.18;;;;;;;5.74;100.00;93055.84;5147337;27;20048;-78
2022/11/14 07:11:37;;;;;;;13.45;8.50;;;;;;;5.75;100.00;93057.41;5164089;27;20077;-78
2022/11/14 07:14:21;;;;;;;13.38;7.68;;;;;;;5.75;100.00;93056.63;5162124;27;20573;-78
2022/11/14 07:17:05;;;;;;;11.20;6.78;;;;;;;5.76;100.00;93061.56;5149738;27;20572;-78
2022/11/14 07:19:48;;;;;;;12.38;7.68;;;;;;;5.80;100.00;93064.47;5135159;27;20100;-78
2022/11/14 07:22:32;;;;;;;11.27;6.80;;;;;;;5.81;100.00;93060.88;5133857;27;20503;-77
2022/11/14 07:25:16;;;;;;;13.25;6.95;;;;;;;5.81;100.00;93066.06;5147923;27;20066;-77
2022/11/14 07:28:00;;;;;;;10.23;5.97;;;;;;;5.75;100.00;93065.19;5128205;27;20046;-77
2022/11/14 07:30:44;;;;;;;9.23;6.05;;;;;;;5.73;100.00;93076.88;5117838;27;20097;-82
2022/11/14 07:33:29;;;;;;;11.95;6.50;;;;;;;5.72;100.00;93075.28;5120443;27;20095;-77
2022/11/14 07:36:14;;;;;;;11.00;6.57;;;;;;;5.71;100.00;93077.09;5138636;27;20053;-77
2022/11/14 07:38:59;;;;;;;13.30;7.28;;;;;;;5.72;100.00;93076.09;5136251;27;20045;-77
2022/11/14 07:41:43;;;;;;;10.48;6.30;;;;;;;5.71;100.00;93076.31;5112622;27;20354;-77
2022/11/14 07:44:27;;;;;;;10.10;6.22;;;;;;;5.73;100.00;93085.44;5130389;27;20038;-77
2022/11/14 07:47:10;;;;;;;12.00;6.72;;;;;;;5.77;100.00;93081.34;5148443;27;20045;-77
2022/11/14 07:49:54;;;;;;;13.60;7.32;;;;;;;5.79;100.00;93086.31;5129972;27;20054;-77
2022/11/14 07:52:38;;;;;;;10.13;6.68;;;;;;;5.78;100.00;93088.09;5149762;27;20081;-77
2022/11/14 07:55:23;;;;;;;11.32;6.90;;;;;;;5.80;100.00;93090.47;5151071;27;20053;-77
2022/11/14 07:58:07;;;;;;;13.48;7.85;;;;;;;5.82;100.00;93089.19;5149952;27;20519;-78
2022/11/14 08:00:51;;;;;;;11.05;5.80;;;;;;;5.86;100.00;93089.50;5138197;27;20393;-77
2022/11/14 08:03:35;;;;;;;9.43;5.63;;;;;;;5.90;100.00;93090.59;5145895;27;20087;-78
2022/11/14 08:06:19;;;;;;;7.15;4.82;;;;;;;5.90;100.00;93082.78;5146682;27;20114;-77
2022/11/14 08:09:04;;;;;;;10.48;5.10;;;;;;;5.93;100.00;93089.31;5138126;27;20069;-77
2022/11/14 08:11:48;;;;;;;9.43;5.43;;;;;;;5.93;100.00;93086.72;5106169;27;20046;-77
2022/11/14 08:14:32;;;;;;;8.18;5.03;;;;;;;5.93;100.00;93094.53;5123125;27;20072;-77
2022/11/14 08:17:16;;;;;;;9.57;5.03;;;;;;;5.91;100.00;93094.75;5146604;27;20511;-77
2022/11/14 08:20:00;;;;;;;8.40;5.20;;;;;;;5.89;100.00;93099.41;5124124;27;20156;-77
2022/11/14 08:22:43;;;;;;;9.18;4.78;;;;;;;5.94;100.00;93111.66;5129942;27;20404;-77
2022/11/14 08:25:28;;;;;;;7.28;4.93;;;;;;;5.88;100.00;93105.63;5117722;27;20045;-77
2022/11/14 08:28:12;;;;;;;8.13;5.20;;;;;;;5.86;100.00;93110.28;5139761;27;20048;-77
2022/11/14 08:31:01;;;;;;;7.32;4.60;;;;;;;5.83;100.00;93118.53;5141475;27;20110;-78
2022/11/14 08:33:45;;;;;;;8.40;5.65;;;;;;;5.84;100.00;93120.13;5114770;27;20092;-78
2022/11/14 08:36:29;;;;;;;8.68;5.90;;;;;;;5.86;100.00;93119.91;5139790;27;20061;-78
2022/11/14 08:39:13;;;;;;;16.30;9.85;;;;;;;5.90;100.00;93113.97;5130699;27;20457;-78
2022/11/14 08:41:57;;;;;;;14.43;9.13;;;;;;;5.89;100.00;93117.59;5135316;27;20092;-78
2022/11/14 08:44:41;;;;;;;13.23;8.13;;;;;;;5.87;100.00;93117.03;5134519;27;20401;-78
2022/11/14 08:47:25;;;;;;;15.98;9.13;;;;;;;5.90;100.00;93119.19;5126875;27;20116;-78
2022/11/14 08:50:09;;;;;;;13.73;7.60;;;;;;;5.84;100.00;93117.53;5150159;27;20099;-78
2022/11/14 08:52:53;;;;;;;10.23;6.00;;;;;;;5.91;100.00;93133.72;5129417;27;20049;-78
2022/11/14 08:55:43;;;;;;;304.50;12.88;;;;;;;6.05;100.00;93134.19;5136242;27;20058;-78
2022/11/14 08:58:29;;;;;;;15.82;8.35;;;;;;;5.82;100.00;93130.75;5133899;27;20045;-77
2022/11/14 09:01:13;;;;;;;11.85;7.03;;;;;;;5.77;100.00;93129.91;5135779;27;20594;-77
2022/11/14 09:03:59;;;;;;;11.73;7.32;;;;;;;5.77;100.00;93135.13;5150532;27;20057;-77
2022/11/14 09:06:45;;;;;;;11.65;6.95;;;;;;;5.78;100.00;93132.25;5152015;27;20049;-77
2022/11/14 09:09:29;;;;;;;10.60;6.35;;;;;;;5.82;100.00;93135.19;5152770;27;20037;-78
2022/11/14 09:12:13;;;;;;;11.50;6.45;;;;;;;5.80;100.00;93130.22;5151728;27;20083;-78
2022/11/14 09:14:57;;;;;;;14.40;7.47;;;;;;;5.64;100.00;93107.66;5133191;27;20041;-77
2022/11/14 09:17:41;;;;;;;10.82;6.63;;;;;;;5.87;100.00;93132.63;5120883;27;20046;-77
2022/11/14 09:20:25;;;;;;;9.65;6.25;;;;;;;5.95;100.00;93134.06;5124332;27;20050;-77
2022/11/14 09:23:10;;;;;;;10.35;5.63;;;;;;;5.97;100.00;93126.81;5131506;27;20084;-78
2022/11/14 09:25:55;;;;;;;10.25;5.80;;;;;;;6.07;100.00;93137.31;5145379;27;20519;-78
2022/11/14 09:28:40;;;;;;;12.45;6.70;;;;;;;6.21;100.00;93145.53;5150697;27;20066;-78
2022/11/14 09:31:24;;;;;;;9.43;5.50;;;;;;;6.33;100.00;93143.63;5134065;27;20408;-78
2022/11/14 09:34:08;;;;;;;9.70;5.90;;;;;;;6.44;100.00;93141.91;5101878;27;20095;-78
2022/11/14 09:36:52;;;;;;;9.88;5.20;;;;;;;6.54;100.00;93151.63;5121927;27;20398;-78
2022/11/14 09:39:39;;;;;;;6.47;4.00;;;;;;;6.59;100.00;93146.47;5143609;27;20049;-77
2022/11/14 09:42:49;;;;;;;8.85;4.20;;;;;;;6.63;100.00;93148.34;5147360;27;20054;-77
2022/11/14 09:45:38;;;;;;;5.88;3.47;;;;;;;6.80;100.00;93144.84;5141502;27;20049;-77
2022/11/14 09:48:28;;;;;;;7.85;3.58;;;;;;;6.70;100.00;93149.97;5135773;27;20038;-78
2022/11/14 09:51:19;;;;;;;7.32;4.30;;;;;;;6.73;100.00;93155.44;5132728;27;20058;-79
2022/11/14 09:54:17;;;;;;;6.20;3.40;;;;;;;6.87;100.00;93151.44;5144298;27;20107;-77
2022/11/14 09:57:01;;;;;;;6.45;3.80;;;;;;;6.97;100.00;93149.97;5126955;27;20045;-78
2022/11/14 09:59:46;;;;;;;13.07;6.40;;;;;;;7.02;100.00;93147.41;5127501;27;20046;-78
2022/11/14 10:03:03;;;;;;;9.57;6.20;;;;;;;6.99;100.00;93153.09;5144978;27;20050;-78
2022/11/14 10:06:27;;;;;;;10.07;5.68;;;;;;;6.75;100.00;93148.19;5121989;27;20045;-77
2022/11/14 10:09:46;;;;;;;1075.30;30.13;;;;;;;6.55;100.00;93143.59;5143234;27;20037;-77
2022/11/14 10:12:56;;;;;;;141.85;10.95;;;;;;;6.44;100.00;93137.50;5131021;27;20069;-78
2022/11/14 10:15:50;;;;;;;100.35;11.15;;;;;;;6.29;100.00;93139.94;5143475;27;20099;-77
2022/11/14 10:18:43;;;;;;;643.58;21.02;;;;;;;6.23;100.00;93135.69;5131644;27;20054;-77
2022/11/14 10:21:45;;;;;;;569.35;20.08;;;;;;;6.19;100.00;93139.81;5141001;27;20087;-77
2022/11/14 10:24:37;;;;;;;359.23;15.80;;;;;;;6.18;100.00;93143.44;5145551;27;20050;-78
2022/11/14 10:27:34;;;;;;;265.83;14.10;;;;;;;6.01;100.00;93144.28;5135152;27;20054;-78
2022/11/14 10:30:19;;;;;;;232.98;12.52;;;;;;;6.04;100.00;93138.59;5121245;27;20050;-77
2022/11/14 10:33:21;;;;;;;442.67;20.55;;;;;;;5.94;100.00;93138.47;5148554;27;20053;-77
2022/11/14 10:36:45;;;;;;;392.85;16.75;;;;;;;6.05;100.00;93131.59;5150299;27;20040;-77
2022/11/14 10:39:41;;;;;;;27.73;6.38;;;;;;;6.17;100.00;93128.84;5138164;27;20554;-77
2022/11/14 10:42:33;;;;;;;15.30;8.48;;;;;;;6.10;100.00;93120.47;5138408;27;20081;-77
2022/11/14 10:45:17;;;;;;;12.55;7.30;;;;;;;6.02;100.00;93125.06;5146416;27;20091;-78
2022/11/14 10:48:24;;;;;;;15.65;9.40;;;;;;;6.00;100.00;93128.94;5147979;27;20478;-77
2022/11/14 10:51:32;;;;;;;13.20;8.25;;;;;;;6.32;100.00;93123.03;5140686;27;20532;-76
2022/11/14 10:54:37;;;;;;;13.60;8.20;;;;;;;6.29;100.00;93124.31;5143972;27;20065;-77
2022/11/14 10:57:21;;;;;;;13.95;8.18;;;;;;;6.16;100.00;93119.50;5130395;27;20049;-77
2022/11/14 11:00:14;;;;;;;49.05;10.07;;;;;;;6.08;100.00;93117.31;5128669;27;20054;-78
2022/11/14 11:02:58;;;;;;;300.67;13.27;;;;;;;6.09;100.00;93117.06;5138642;27;20094;-76
2022/11/14 11:05:53;;;;;;;491.83;17.70;;;;;;;5.98;100.00;93108.38;5154132;27;20095;-76
2022/11/14 11:11:55;;;;;;;8.43;4.85;;;;;;;6.08;100.00;93112.13;5147770;27;20045;-77
2022/11/14 11:14:39;;;;;;;8.55;4.97;;;;;;;6.01;100.00;93118.31;5148319;27;20042;-78
2022/11/14 11:17:23;;;;;;;13.90;7.97;;;;;;;5.80;100.00;93111.25;5147478;27;20405;-79
2022/11/14 11:20:32;;;;;;;13.10;8.07;;;;;;;5.68;100.00;93107.97;5150744;27;20049;-76
2022/11/14 11:23:20;;;;;;;15.57;9.02;;;;;;;5.73;100.00;93108.81;5119865;27;20472;-76
2022/11/14 11:26:23;;;;;;;15.45;8.88;;;;;;;5.72;100.00;93111.66;5133161;27;20165;-78
2022/11/14 11:29:10;;;;;;;;;;;;;;;5.70;100.00;93106.72;5132433;27;20077;-78
2022/11/14 11:31:58;;;;;;;15.10;8.32;;;;;;;5.85;100.00;93106.09;5127559;27;20332;-77
2022/11/14 11:34:42;;;;;;;18.75;8.95;;;;;;;5.86;100.00;93104.31;5117071;27;20046;-78
2022/11/14 11:37:58;;;;;;;13.95;7.78;;;;;;;6.02;100.00;93109.47;5131557;27;20049;-77
2022/11/14 11:40:49;;;;;;;17.10;9.30;;;;;;;5.92;100.00;93103.31;5121092;27;20126;-78
2022/11/14 11:43:46;;;;;;;13.93;8.20;;;;;;;5.90;100.00;93105.38;5124327;27;20115;-78
2022/11/14 11:46:39;;;;;;;15.27;8.60;;;;;;;5.93;100.00;93108.28;5130613;27;20039;-78
2022/11/14 11:49:29;;;;;;;13.07;8.23;;;;;;;5.95;100.00;93108.09;5133552;27;20070;-78
2022/11/14 11:52:22;;;;;;;13.27;8.32;;;;;;;5.98;100.00;93100.56;5126096;27;20545;-77
2022/11/14 11:55:54;;;;;;;9.70;6.20;;;;;;;6.12;100.00;93105.41;5132705;27;20058;-78
2022/11/14 11:58:52;;;;;;;10.02;6.63;;;;;;;6.07;100.00;93095.75;5035125;28;20431;-77
2022/11/14 12:01:36;;;;;;;10.13;6.75;;;;;;;6.13;100.00;93101.78;5135289;27;20038;-78
2022/11/14 12:04:20;;;;;;;11.48;7.35;;;;;;;6.13;100.00;93088.78;5134391;27;20542;-78
2022/11/14 12:07:13;;;;;;;11.57;7.63;;;;;;;6.18;100.00;93087.03;5133154;27;20554;-78
2022/11/14 12:10:03;;;;;;;12.13;6.75;;;;;;;6.23;100.00;93096.69;5131620;27;20386;-78
2022/11/14 12:13:00;;;;;;;15.90;10.73;;;;;;;6.16;100.00;93090.91;5133023;27;20156;-78
2022/11/14 12:15:51;;;;;;;16.30;7.68;;;;;;;6.20;100.00;93092.78;5124251;27;20080;-78
2022/11/14 12:18:52;;;;;;;12.75;8.50;;;;;;;6.17;100.00;93093.25;5132137;27;20048;-78
2022/11/14 12:22:04;;;;;;;52.05;10.05;;;;;;;6.13;100.00;93091.41;5132739;27;20528;-77
2022/11/14 12:25:33;;;;;;;69.15;9.52;;;;;;;5.99;100.00;93090.97;5110857;27;20513;-77
2022/11/14 12:28:35;;;;;;;13.85;7.93;;;;;;;6.01;100.00;93081.91;5106138;28;20051;-74
2022/11/14 12:31:19;;;;;;;13.07;8.35;;;;;;;5.96;100.00;93079.25;5113849;28;20091;-77
2022/11/14 12:34:31;;;;;;;14.48;8.48;;;;;;;5.94;100.00;93081.28;5111296;28;20050;-77
2022/11/14 12:37:22;;;;;;;12.32;7.82;;;;;;;5.96;100.00;93079.25;5107400;28;20042;-77
2022/11/14 12:40:22;;;;;;;12.85;8.23;;;;;;;5.97;100.00;93074.84;5101625;28;20471;-77
2022/11/14 12:43:27;;;;;;;13.65;8.43;;;;;;;6.11;100.00;93075.25;5110219;28;20074;-77
2022/11/14 12:46:12;;;;;;;13.80;9.27;;;;;;;5.92;100.00;93057.34;5111263;28;20067;-77
2022/11/14 12:48:56;;;;;;;15.20;8.98;;;;;;;6.04;100.00;93063.22;5109022;28;20051;-77
2022/11/14 12:51:49;;;;;;;14.35;8.52;;;;;;;6.00;100.00;93062.13;5091686;28;21475;-77
2022/11/14 12:54:47;;;;;;;13.77;8.25;;;;;;;5.99;100.00;93065.78;5104863;28;20058;-77
2022/11/14 12:57:48;;;;;;;12.43;7.95;;;;;;;6.08;100.00;93062.72;5110249;28;20042;-77
2022/11/14 13:00:44;;;;;;;17.30;8.50;;;;;;;6.27;100.00;93063.97;5109088;28;20407;-77
2022/11/14 13:03:57;;;;;;;14.90;8.43;;;;;;;6.20;100.00;93058.97;5104890;28;20087;-77
2022/11/14 13:06:59;;;;;;;14.73;9.27;;;;;;;6.16;100.00;93054.50;5104486;28;20035;-76
2022/11/14 13:09:57;;;;;;;13.07;8.68;;;;;;;6.26;100.00;93052.03;5112474;28;20598;-77
2022/11/14 13:22:13;;;;;;;10.18;6.65;;;;;;;6.55;100.00;93036.13;5109321;28;20147;-77
2022/11/14 13:24:57;;;;;;;13.70;7.55;;;;;;;6.67;100.00;93037.56;5108914;28;20517;-77
2022/11/14 13:27:41;;;;;;;11.23;6.72;;;;;;;6.80;100.00;93031.16;5107942;28;20186;-76
2022/11/14 13:31:07;;;;;;;11.10;6.82;;;;;;;6.88;100.00;93030.69;5102861;28;20044;-77